Market Weighton, United Kingdom
Current Conditions -  °F | °C
As of 11:50 PM on Monday 20 Oct 2014 (Local Time) from EGXV Reporting Station
Broken Clouds Broken Clouds  
Wind Chill: 54°   Ceiling: 17000
Heat Index: 54°   Visibility: 6mi
Dew Point: 50°   Wind: 14mph
Humidity: 88%   Direction: 200°SSW
Pressure: 29.65"   Gusts: NA
Location:  53.86°N, 0.67°W
Report Text: EGXV 202250Z AUTO 20012KT 9999 FEW050/// BKN170/// 12/10 Q1004
Loading
Personal Weather Stations






























Interactive Weather Map
Tropical Storm Tracking
New forecast layout! Learn more

10-Day Weather Forecast

Advertisements
Track Severe Weather on mobile